createdAt,value
2019-01-17T00:03:53.985Z,71.80
2019-01-17T00:08:33.975Z,71.70
2019-01-17T00:13:13.817Z,71.30
2019-01-17T00:17:59.886Z,71.60
2019-01-17T00:22:41.347Z,71.50
2019-01-17T00:27:21.293Z,71.40
2019-01-17T00:32:05.119Z,71.20
2019-01-17T00:36:42.036Z,71.30
2019-01-17T00:41:13.521Z,71.70
2019-01-17T00:45:49.599Z,71.90
2019-01-17T00:50:32.327Z,72.00
2019-01-17T00:55:27.783Z,72.10
2019-01-17T00:59:54.436Z,71.90
2019-01-17T01:04:49.975Z,72.30
2019-01-17T01:09:19.220Z,72.90
2019-01-17T01:14:02.651Z,73.50
2019-01-17T01:18:38.431Z,73.90
2019-01-17T01:23:15.866Z,74.30
2019-01-17T01:27:53.253Z,74.40
2019-01-17T01:32:32.996Z,74.30
2019-01-17T01:37:08.832Z,74.30
2019-01-17T01:41:50.645Z,74.40
2019-01-17T01:46:25.530Z,74.30
2019-01-17T01:51:11.462Z,74.20
2019-01-17T01:55:29.998Z,74.20
2019-01-17T01:59:48.497Z,74.30
2019-01-17T02:04:07.193Z,74.20
2019-01-17T02:08:25.435Z,74.20
2019-01-17T02:12:43.458Z,75.00
2019-01-17T02:17:01.840Z,74.20
2019-01-17T02:21:20.657Z,74.30
2019-01-17T02:25:39.150Z,74.40
2019-01-17T02:29:57.302Z,74.10
2019-01-17T02:34:15.612Z,74.10
2019-01-17T02:38:33.760Z,74.20
2019-01-17T02:42:52.268Z,74.40
2019-01-17T02:47:10.732Z,74.70
2019-01-17T02:51:28.860Z,74.70
2019-01-17T02:55:46.986Z,74.70
2019-01-17T03:00:07.676Z,74.90
2019-01-17T03:04:26.994Z,75.40
2019-01-17T03:08:45.479Z,75.50
2019-01-17T03:13:03.696Z,75.50
2019-01-17T03:17:21.714Z,76.10
2019-01-17T03:21:39.907Z,76.00
2019-01-17T03:25:58.435Z,75.30
2019-01-17T03:30:21.065Z,75.10
2019-01-17T03:34:39.636Z,74.70
2019-01-17T03:38:58.070Z,74.70
2019-01-17T03:43:16.233Z,74.70
2019-01-17T03:47:34.736Z,73.90
2019-01-17T03:51:52.906Z,74.10
2019-01-17T03:56:11.044Z,74.50
2019-01-17T04:00:29.204Z,74.60
2019-01-17T04:04:47.416Z,74.80
2019-01-17T04:09:07.831Z,75.10
2019-01-17T04:13:26.318Z,74.70
2019-01-17T04:17:44.571Z,74.60
2019-01-17T04:22:02.871Z,74.50
2019-01-17T04:26:21.141Z,74.80
2019-01-17T04:30:39.545Z,74.30
2019-01-17T04:34:58.290Z,74.80
2019-01-17T04:39:16.695Z,75.00
2019-01-17T04:43:35.155Z,75.00
2019-01-17T04:47:53.806Z,75.30
2019-01-17T04:52:12.176Z,75.20
2019-01-17T04:56:31.520Z,74.80
2019-01-17T05:00:50.151Z,75.20
2019-01-17T05:05:08.781Z,75.60
2019-01-17T05:09:27.036Z,75.10
2019-01-17T05:13:45.742Z,75.30
2019-01-17T05:18:04.240Z,75.40
2019-01-17T05:22:22.854Z,75.30
2019-01-17T05:26:41.253Z,75.50
2019-01-17T05:30:59.920Z,75.30
2019-01-17T05:35:18.143Z,75.30
2019-01-17T05:39:36.374Z,75.40
2019-01-17T05:43:54.703Z,74.80
2019-01-17T05:48:12.963Z,75.20
2019-01-17T05:52:31.236Z,75.30
2019-01-17T05:56:49.947Z,74.90
2019-01-17T06:01:09.002Z,75.40
2019-01-17T06:05:27.774Z,75.60
2019-01-17T06:09:47.106Z,75.50
2019-01-17T06:14:05.589Z,75.40
2019-01-17T06:18:24.460Z,74.90
2019-01-17T06:22:43.067Z,75.60
2019-01-17T06:27:01.463Z,75.30
2019-01-17T06:31:20.070Z,75.00
2019-01-17T06:35:39.359Z,74.90
2019-01-17T06:39:57.443Z,75.40
2019-01-17T06:44:20.228Z,75.70
2019-01-17T06:48:36.510Z,75.40
2019-01-17T06:52:54.756Z,75.00
2019-01-17T06:57:13.289Z,75.00
2019-01-17T07:01:31.365Z,75.20
2019-01-17T07:05:49.785Z,75.00
2019-01-17T07:10:10.499Z,75.20
2019-01-17T07:14:28.702Z,74.80
2019-01-17T07:18:46.852Z,74.70
2019-01-17T07:23:05.147Z,75.00
2019-01-17T07:27:23.401Z,74.60
2019-01-17T07:31:41.884Z,74.10
2019-01-17T07:36:00.055Z,74.50
2019-01-17T07:40:18.887Z,72.50
2019-01-17T07:44:36.987Z,73.50
2019-01-17T07:48:55.138Z,73.20
2019-01-17T07:53:13.328Z,73.20
2019-01-17T07:57:32.009Z,74.10
2019-01-17T08:01:50.566Z,74.40
2019-01-17T08:06:08.682Z,74.00
2019-01-17T08:10:26.751Z,73.80
2019-01-17T08:14:44.933Z,73.70
2019-01-17T08:19:03.435Z,72.00
2019-01-17T08:23:22.325Z,73.80
2019-01-17T08:27:41.183Z,74.00
2019-01-17T08:31:59.338Z,74.00
2019-01-17T08:36:17.469Z,73.60
2019-01-17T08:40:36.451Z,73.70
2019-01-17T08:44:54.709Z,74.20
2019-01-17T08:49:12.822Z,74.30
2019-01-17T08:53:30.958Z,74.20
2019-01-17T08:57:49.242Z,74.20
2019-01-17T09:02:07.295Z,73.10
2019-01-17T09:06:25.509Z,73.30
2019-01-17T09:10:43.686Z,73.40
2019-01-17T09:15:02.173Z,74.50
2019-01-17T09:19:20.462Z,73.50
2019-01-17T09:23:38.748Z,74.00
2019-01-17T09:27:56.878Z,74.00
2019-01-17T09:32:15.510Z,73.70
2019-01-17T09:36:33.643Z,74.00
2019-01-17T09:40:51.674Z,74.10
2019-01-17T09:45:10.833Z,74.10
2019-01-17T09:49:28.986Z,74.70
2019-01-17T09:53:47.198Z,74.40
2019-01-17T09:58:05.474Z,74.60
2019-01-17T10:02:23.756Z,74.30
2019-01-17T10:06:41.892Z,73.60
2019-01-17T10:11:00.425Z,74.00
2019-01-17T10:15:44.282Z,72.80
2019-01-17T10:21:14.360Z,73.10
2019-01-17T10:26:43.579Z,72.90
2019-01-17T10:31:52.127Z,72.30
2019-01-17T10:36:52.103Z,71.80
2019-01-17T10:42:16.405Z,71.10
2019-01-17T10:47:31.750Z,70.60
2019-01-17T10:52:55.112Z,72.10
2019-01-17T10:58:15.941Z,69.70
2019-01-17T11:03:31.511Z,70.20
2019-01-17T11:08:31.159Z,70.60
2019-01-17T11:13:47.232Z,71.20
2019-01-17T11:19:15.842Z,70.90
2019-01-17T11:24:13.853Z,70.60
2019-01-17T11:29:26.879Z,71.00
2019-01-17T11:34:16.637Z,72.20
2019-01-17T11:39:22.877Z,71.70
2019-01-17T11:45:17.660Z,71.50
2019-01-17T11:50:35.420Z,71.40
2019-01-17T11:55:49.772Z,70.20
2019-01-17T12:01:12.180Z,71.10
2019-01-17T12:05:30.821Z,71.60
2019-01-17T12:09:48.979Z,70.70
2019-01-17T12:14:07.056Z,69.90
2019-01-17T12:18:25.341Z,69.70
2019-01-17T12:22:43.605Z,71.00
2019-01-17T12:27:01.748Z,72.20
2019-01-17T12:31:19.994Z,70.90
2019-01-17T12:35:38.191Z,71.80
2019-01-17T12:39:56.301Z,72.00
2019-01-17T12:44:14.716Z,72.00
2019-01-17T12:48:33.639Z,72.50
2019-01-17T12:52:52.972Z,71.90
2019-01-17T12:57:11.040Z,71.00
2019-01-17T13:01:29.158Z,70.40
2019-01-17T13:05:47.467Z,71.00
2019-01-17T13:10:07.565Z,70.90
2019-01-17T13:14:25.675Z,70.60
2019-01-17T13:18:44.084Z,70.40
2019-01-17T13:23:02.707Z,68.60
2019-01-17T13:27:20.846Z,70.30
2019-01-17T13:31:39.074Z,69.20
2019-01-17T13:35:58.443Z,68.40
2019-01-17T13:40:21.296Z,66.70
2019-01-17T13:44:39.465Z,66.60
2019-01-17T13:48:58.067Z,67.70
2019-01-17T13:53:16.721Z,68.30
2019-01-17T13:57:35.074Z,67.60
2019-01-17T14:01:53.322Z,68.00
2019-01-17T14:06:11.592Z,67.20
2019-01-17T14:10:30.152Z,68.60
2019-01-17T14:14:48.715Z,68.60
2019-01-17T14:19:07.218Z,67.70
2019-01-17T14:23:25.430Z,68.10
2019-01-17T14:27:43.532Z,68.50
2019-01-17T14:32:01.630Z,68.00
2019-01-17T14:36:19.966Z,67.30
2019-01-17T14:40:37.958Z,67.90
2019-01-17T14:44:56.369Z,67.50
2019-01-17T14:49:14.486Z,67.60
2019-01-17T14:53:33.942Z,67.90
2019-01-17T14:57:52.407Z,66.20
2019-01-17T15:02:10.564Z,64.70
2019-01-17T15:06:29.003Z,66.50
2019-01-17T15:10:47.006Z,65.90
2019-01-17T15:15:06.614Z,65.10
2019-01-17T15:19:25.125Z,65.80
2019-01-17T15:23:43.875Z,65.40
2019-01-17T15:28:02.035Z,64.60
2019-01-17T15:32:20.337Z,65.60
2019-01-17T15:36:38.596Z,65.30
2019-01-17T15:40:56.799Z,63.90
2019-01-17T15:45:15.174Z,65.30
2019-01-17T15:49:33.456Z,65.60
2019-01-17T15:53:51.691Z,65.30
2019-01-17T15:58:09.924Z,65.00
2019-01-17T16:02:28.094Z,66.20
2019-01-17T16:06:46.989Z,66.80
2019-01-17T16:11:05.227Z,66.60
2019-01-17T16:15:26.428Z,66.30
2019-01-17T16:19:44.591Z,66.40
2019-01-17T16:24:03.006Z,66.50
2019-01-17T16:28:21.167Z,66.70
2019-01-17T16:32:39.327Z,66.30
2019-01-17T16:36:57.511Z,66.20
2019-01-17T16:41:16.062Z,63.90
2019-01-17T16:45:35.506Z,64.60
2019-01-17T16:49:54.231Z,63.90
2019-01-17T16:54:12.960Z,65.60
2019-01-17T16:58:31.429Z,65.00
2019-01-17T17:02:50.212Z,65.40
2019-01-17T17:07:08.370Z,65.70
2019-01-17T17:11:26.560Z,66.10
2019-01-17T17:15:45.081Z,66.20
2019-01-17T17:20:03.503Z,66.20
2019-01-17T17:24:22.004Z,65.70
2019-01-17T17:28:40.372Z,66.50
2019-01-17T17:32:58.521Z,66.30
2019-01-17T17:37:16.682Z,66.70
2019-01-17T17:41:34.833Z,66.80
2019-01-17T17:45:58.212Z,67.00
2019-01-17T17:50:18.982Z,67.30
2019-01-17T17:54:37.055Z,67.80
2019-01-17T17:58:55.259Z,68.30
2019-01-17T18:03:13.836Z,68.80
2019-01-17T18:07:37.372Z,69.30
2019-01-17T18:11:55.934Z,69.50
2019-01-17T18:16:15.224Z,69.60
2019-01-17T18:20:34.567Z,70.00
2019-01-17T18:24:52.676Z,70.30
2019-01-17T18:29:10.862Z,70.60
2019-01-17T18:33:29.183Z,70.80
2019-01-17T18:37:48.437Z,70.80
2019-01-17T18:42:06.989Z,70.80
2019-01-17T18:46:25.615Z,70.50
2019-01-17T18:50:45.954Z,71.10
2019-01-17T18:55:06.764Z,70.50
2019-01-17T18:59:24.833Z,70.60
2019-01-17T19:03:43.157Z,70.30
2019-01-17T19:08:01.473Z,70.60
2019-01-17T19:12:20.343Z,70.40
2019-01-17T19:16:38.850Z,70.40
2019-01-17T19:20:58.960Z,70.00
2019-01-17T19:25:18.432Z,70.10
2019-01-17T19:29:42.640Z,69.60
2019-01-17T19:34:01.408Z,69.70
2019-01-17T19:38:19.802Z,69.50
2019-01-17T19:42:58.766Z,69.50
2019-01-17T19:47:17.944Z,69.10
2019-01-17T19:51:38.181Z,69.50
2019-01-17T19:55:56.412Z,69.80
2019-01-17T20:00:17.210Z,69.60
2019-01-17T20:04:41.677Z,69.80
2019-01-17T20:08:57.676Z,70.70
2019-01-17T20:13:17.394Z,71.50
2019-01-17T20:17:35.755Z,70.30
2019-01-17T20:21:57.538Z,70.60
2019-01-17T20:26:17.898Z,70.80
2019-01-17T20:30:36.881Z,70.70
2019-01-17T20:34:57.696Z,71.00
2019-01-17T20:39:15.899Z,71.40
2019-01-17T21:48:31.879Z,71.80
2019-01-17T21:52:57.056Z,71.40
2019-01-17T21:57:15.404Z,70.60
2019-01-17T22:01:34.285Z,71.30
2019-01-17T22:05:53.274Z,71.50
2019-01-17T22:10:12.855Z,71.30
2019-01-17T22:14:30.975Z,71.20
2019-01-17T22:18:49.460Z,70.90
2019-01-17T22:23:07.521Z,71.30
2019-01-17T22:27:25.681Z,71.40
2019-01-17T22:31:44.663Z,70.90
2019-01-17T22:36:02.764Z,70.70
2019-01-17T22:40:21.300Z,70.60
2019-01-17T22:44:39.668Z,70.10
2019-01-17T22:48:57.972Z,69.30
2019-01-17T22:53:16.520Z,69.70
2019-01-17T22:57:34.756Z,68.40
2019-01-17T23:01:53.358Z,68.80
2019-01-17T23:06:11.700Z,68.90
2019-01-17T23:10:33.337Z,68.40
2019-01-17T23:14:51.465Z,68.50
2019-01-17T23:19:09.631Z,67.80
2019-01-17T23:23:28.185Z,68.10
2019-01-17T23:27:47.496Z,67.90
2019-01-17T23:32:05.979Z,68.20
2019-01-17T23:36:24.046Z,68.30
2019-01-17T23:40:42.079Z,68.20
2019-01-17T23:45:00.232Z,68.20
2019-01-17T23:49:18.346Z,67.80
2019-01-17T23:53:39.823Z,68.30
2019-01-17T23:57:57.837Z,68.20
